Weather at Adolfo López Mateos International Airport

Public forecast

Using degrees Celsius for public forecast. Weather courtesy of forecast.io.

Current aviation weather report (METAR) for Adolfo López Mateos International Airport

2024/05/28 21:44 (retrieved 47 minutes ago)

MMTO 282144Z 14010KT 6SM FEW020 BKN200 27/03 A3042 RMK 8/108 HZY

Aviation forecast (TAF) for Adolfo López Mateos International Airport

2024/05/28 18:36 (retrieved 4 hours ago)

TAF MMTO 281629Z 2818/2918 15008KT 5SM HZ BKN200 TX25/2821Z TN12/2912Z BECMG 2821/2822 20010KT SCT020 TEMPO 2822/2902 20010G20KT 4SM TSRA BKN020CB FM290300 00000KT 6SM HZ SCT020 BKN080 TEMPO 2911/2915 5SM HZ SKC